Time;durP1;ratioP1;P1;durP2;ratioP2;P2;SDS_P1;SDS_P2;PMS_P1;PMS_P2;Temp;Humidity;BMP_temperature;BMP_pressure;BME280_temperature;BME280_humidity;BME280_pressure;Samples;Min_cycle;Max_cycle;Signal;HPM_P1;HPM_P2
2021/11/07 00:01:09;;;;;;;17.00;10.30;;;;;;;6.78;66.69;100556.29;113023;1195;137656;-66
2021/11/07 00:04:21;;;;;;;14.30;9.70;;;;;;;6.73;66.53;100554.46;113097;1195;112235;-66
2021/11/07 00:10:09;;;;;;;17.30;11.40;;;;;;;6.64;66.87;100547.29;113048;1195;109779;-65
2021/11/07 00:13:04;;;;;;;18.40;11.60;;;;;;;6.60;66.98;100539.21;113070;1195;137855;-67
2021/11/07 00:16:00;;;;;;;16.10;10.60;;;;;;;6.54;67.12;100535.49;113056;1195;97542;-65
2021/11/07 00:18:58;;;;;;;15.70;10.50;;;;;;;6.50;67.24;100533.64;114531;1195;138499;-64
2021/11/07 00:21:59;;;;;;;18.80;10.60;;;;;;;6.47;67.16;100529.35;113158;1195;107393;-65
2021/11/07 00:24:54;;;;;;;16.30;11.90;;;;;;;6.45;67.29;100529.35;112947;1187;137826;-65
2021/11/07 00:27:53;;;;;;;18.30;11.80;;;;;;;6.43;67.32;100520.40;113164;1195;97529;-64
2021/11/07 00:30:52;;;;;;;15.00;10.50;;;;;;;6.38;67.35;100515.45;113214;1195;137598;-63
2021/11/07 00:34:13;;;;;;;17.60;10.30;;;;;;;6.34;67.54;100514.11;113147;1195;112239;-64
2021/11/07 00:37:01;;;;;;;17.40;11.50;;;;;;;6.32;67.45;100515.35;113036;1195;138357;-64
2021/11/07 00:40:06;;;;;;;18.50;11.50;;;;;;;6.30;67.59;100513.13;113139;1195;108431;-65
2021/11/07 00:43:02;;;;;;;17.50;12.10;;;;;;;6.26;67.73;100506.75;112977;1195;138348;-65
2021/11/07 00:49:46;;;;;;;18.90;11.80;;;;;;;6.19;67.73;100504.77;114486;1195;138636;-65
2021/11/07 00:52:24;;;;;;;18.80;11.70;;;;;;;6.18;67.78;100502.89;113108;1195;109136;-65
2021/11/07 00:55:21;;;;;;;18.80;12.30;;;;;;;6.17;67.85;100507.73;113024;1195;137635;-65
2021/11/07 00:58:12;;;;;;;19.60;12.40;;;;;;;6.14;67.94;100493.44;113140;1195;97538;-65
2021/11/07 01:01:04;;;;;;;19.00;12.00;;;;;;;6.13;67.87;100491.04;112990;1195;137609;-65
2021/11/07 01:03:51;;;;;;;19.10;12.20;;;;;;;6.12;68.03;100491.91;113146;1195;111932;-65
2021/11/07 01:06:40;;;;;;;17.50;11.70;;;;;;;6.10;68.10;100486.04;114520;1195;138083;-65
2021/11/07 01:09:27;;;;;;;19.50;12.90;;;;;;;6.08;68.01;100489.15;114503;1195;108537;-66
2021/11/07 01:12:17;;;;;;;19.30;13.50;;;;;;;6.07;67.97;100477.08;114555;1195;137872;-66
2021/11/07 01:15:05;;;;;;;19.00;12.40;;;;;;;6.03;68.15;100477.47;113808;1191;97510;-65
2021/11/07 01:17:54;;;;;;;19.10;12.70;;;;;;;6.01;68.21;100468.70;114427;1195;138239;-64
2021/11/07 01:20:42;;;;;;;18.80;12.20;;;;;;;6.01;68.11;100473.70;113154;1195;108082;-66
2021/11/07 01:23:40;;;;;;;;;;;;;;;5.99;68.29;100462.67;114545;1195;138100;-64
2021/11/07 01:29:16;;;;;;;21.60;13.90;;;;;;;5.94;68.34;100454.63;114612;1195;138469;-64
2021/11/07 01:32:03;;;;;;;18.40;12.50;;;;;;;5.90;68.45;100449.96;114649;1195;111325;-64
2021/11/07 01:37:53;;;;;;;20.90;14.00;;;;;;;5.88;68.56;100436.86;113003;1195;138553;-65
2021/11/07 01:40:57;;;;;;;22.20;13.90;;;;;;;5.85;68.55;100435.16;114668;1195;95918;-65
2021/11/07 01:43:46;;;;;;;21.70;14.30;;;;;;;5.82;68.61;100433.31;114545;1195;137212;-65
2021/11/07 01:46:34;;;;;;;21.40;14.80;;;;;;;5.78;68.64;100432.66;114690;1195;111916;-65
2021/11/07 01:49:25;;;;;;;19.80;13.10;;;;;;;5.77;68.49;100427.67;114421;1195;140295;-65
2021/11/07 01:52:13;;;;;;;20.40;13.30;;;;;;;5.79;68.65;100416.95;114566;1195;107378;-65
2021/11/07 01:55:05;;;;;;;21.00;14.30;;;;;;;5.79;68.42;100414.70;114523;1195;138484;-65
2021/11/07 01:57:51;;;;;;;21.30;14.70;;;;;;;5.77;68.64;100414.22;114655;1195;97202;-65
2021/11/07 02:00:39;;;;;;;19.10;13.40;;;;;;;5.74;68.64;100412.83;114600;1195;137509;-65
2021/11/07 02:03:27;;;;;;;20.50;13.70;;;;;;;5.71;68.61;100409.08;114711;1195;107985;-65
2021/11/07 02:06:17;;;;;;;18.90;13.70;;;;;;;5.68;68.56;100401.70;113798;1195;138480;-65
2021/11/07 02:09:04;;;;;;;18.30;13.10;;;;;;;5.67;68.48;100395.15;113196;1195;97515;-65
2021/11/07 02:11:51;;;;;;;20.90;13.60;;;;;;;5.65;68.47;100396.03;112746;1196;139007;-65
2021/11/07 02:14:40;;;;;;;21.60;14.10;;;;;;;5.63;68.60;100388.98;113604;1195;112225;-64
2021/11/07 02:17:27;;;;;;;19.40;13.80;;;;;;;5.59;68.56;100385.06;113686;1185;137927;-65
2021/11/07 02:20:44;;;;;;;23.20;13.80;;;;;;;5.56;68.52;100381.80;114659;1195;107763;-65
2021/11/07 02:23:31;;;;;;;21.80;13.80;;;;;;;5.52;68.70;100374.41;114309;1195;138449;-65
2021/11/07 02:26:20;;;;;;;22.60;13.00;;;;;;;5.51;68.62;100363.73;114731;1195;96277;-65
2021/11/07 02:29:07;;;;;;;21.50;13.90;;;;;;;5.52;68.67;100359.77;114653;1196;112213;-65
2021/11/07 02:31:56;;;;;;;21.70;14.40;;;;;;;5.49;68.60;100353.59;114606;1195;137484;-65
2021/11/07 02:34:44;;;;;;;24.70;15.10;;;;;;;5.44;68.42;100352.60;114679;1195;108725;-65
2021/11/07 02:37:31;;;;;;;19.50;13.20;;;;;;;5.41;68.55;100345.22;114460;1195;138707;-65
2021/11/07 02:40:19;;;;;;;20.20;12.60;;;;;;;5.39;68.47;100336.10;114667;1195;96067;-65
2021/11/07 02:43:06;;;;;;;19.10;12.90;;;;;;;5.39;68.49;100337.48;114584;1195;138502;-66
2021/11/07 02:45:52;;;;;;;22.20;13.60;;;;;;;5.39;68.47;100334.20;114673;1195;108546;-65
2021/11/07 02:48:39;;;;;;;21.50;13.30;;;;;;;5.38;68.54;100333.16;114540;1195;137800;-65
2021/11/07 02:51:28;;;;;;;20.70;13.90;;;;;;;5.35;68.61;100331.63;114651;1195;96047;-65
2021/11/07 02:54:16;;;;;;;23.00;14.00;;;;;;;5.32;68.51;100327.36;114540;1195;138074;-65
2021/11/07 02:57:06;;;;;;;20.90;12.90;;;;;;;5.30;68.63;100324.96;114665;1195;112494;-65
2021/11/07 02:59:58;;;;;;;19.50;12.80;;;;;;;5.30;68.55;100328.59;114619;1195;139269;-65
2021/11/07 03:02:45;;;;;;;22.80;14.20;;;;;;;5.28;68.35;100322.92;114289;1173;108869;-66
2021/11/07 03:05:33;;;;;;;19.30;13.60;;;;;;;5.26;68.56;100315.52;113713;1193;138308;-67
2021/11/07 03:08:19;;;;;;;22.80;13.40;;;;;;;5.24;68.74;100310.39;114675;1195;95861;-64
2021/11/07 03:11:06;;;;;;;20.60;13.40;;;;;;;5.17;68.49;100305.95;113421;1193;112179;-65
2021/11/07 03:13:58;;;;;;;19.20;13.30;;;;;;;5.12;68.88;100303.94;113347;1195;138175;-65
2021/11/07 03:16:45;;;;;;;23.30;14.20;;;;;;;5.09;68.97;100306.56;113401;1195;108499;-64
2021/11/07 03:19:33;;;;;;;21.30;14.20;;;;;;;5.04;68.81;100301.94;113269;1193;138026;-65
2021/11/07 03:22:26;;;;;;;21.30;13.90;;;;;;;4.98;68.95;100299.73;113365;1195;97500;-65
2021/11/07 03:25:13;;;;;;;18.30;12.70;;;;;;;4.91;69.17;100298.45;114198;1193;137913;-65
2021/11/07 03:28:02;;;;;;;18.80;13.00;;;;;;;4.80;69.13;100291.96;114675;1194;108523;-65
2021/11/07 03:30:59;;;;;;;20.90;13.10;;;;;;;4.76;69.31;100287.35;113861;1193;137975;-66
2021/11/07 03:33:53;;;;;;;21.60;13.40;;;;;;;4.70;69.35;100280.35;114726;1193;95688;-64
2021/11/07 03:36:44;;;;;;;20.70;13.80;;;;;;;4.64;69.43;100274.86;114729;1193;137851;-64
2021/11/07 03:39:34;;;;;;;20.50;12.90;;;;;;;4.60;69.60;100268.35;114749;1193;110784;-64
2021/11/07 03:42:21;;;;;;;20.80;12.90;;;;;;;4.59;69.40;100266.98;114584;1193;138263;-64
2021/11/07 03:45:08;;;;;;;20.80;13.20;;;;;;;4.56;69.74;100265.30;114805;1193;108634;-64
2021/11/07 03:47:55;;;;;;;21.60;13.70;;;;;;;4.55;69.79;100255.48;114694;1193;138381;-64
2021/11/07 03:50:44;;;;;;;;;;;;;;;4.53;69.50;100246.20;114100;1193;97508;-65
2021/11/07 03:53:31;;;;;;;21.50;12.80;;;;;;;4.50;69.71;100241.92;113272;1193;124407;-66
2021/11/07 03:56:19;;;;;;;22.30;13.70;;;;;;;4.51;69.68;100235.55;114764;1193;108689;-66
2021/11/07 03:59:06;;;;;;;23.50;14.00;;;;;;;4.51;69.78;100231.43;114797;1193;108688;-64
2021/11/07 04:01:53;;;;;;;22.90;14.80;;;;;;;4.49;69.87;100223.86;114624;1195;137356;-65
2021/11/07 04:04:41;;;;;;;21.80;13.70;;;;;;;4.49;69.78;100213.34;114775;1194;96111;-64
2021/11/07 04:07:27;;;;;;;;;;;;;;;4.49;69.89;100205.95;114659;1194;138120;-64
2021/11/07 04:10:15;;;;;;;19.00;12.40;;;;;;;4.50;69.80;100205.77;114775;1194;108647;-64
2021/11/07 04:13:05;;;;;;;;;;;;;;;4.50;69.81;100207.15;114703;1195;138792;-64
2021/11/07 04:15:52;;;;;;;23.80;14.30;;;;;;;4.49;69.64;100204.23;114767;1195;96765;-64
2021/11/07 04:18:40;;;;;;;20.60;13.40;;;;;;;4.48;69.57;100198.71;114610;1195;138093;-64
2021/11/07 04:21:27;;;;;;;20.60;13.20;;;;;;;4.46;69.65;100206.30;114758;1194;112185;-64
2021/11/07 04:24:17;;;;;;;19.90;12.70;;;;;;;4.47;69.53;100215.58;114694;1194;138647;-64
2021/11/07 04:27:04;;;;;;;20.90;13.00;;;;;;;4.48;69.57;100211.80;114756;1194;108183;-64
2021/11/07 04:29:51;;;;;;;22.40;13.20;;;;;;;4.46;69.40;100212.14;114649;1193;137891;-65
2021/11/07 04:32:38;;;;;;;23.60;13.90;;;;;;;4.42;69.60;100199.10;114786;1193;95913;-64
2021/11/07 04:35:25;;;;;;;;;;;;;;;4.37;69.58;100196.58;114766;1194;112175;-64
2021/11/07 04:38:12;;;;;;;22.10;13.70;;;;;;;4.33;69.97;100205.21;114688;1194;124123;-64
2021/11/07 04:40:59;;;;;;;23.40;13.90;;;;;;;4.31;69.98;100201.43;114779;1193;107397;-65
2021/11/07 04:43:47;;;;;;;24.40;15.60;;;;;;;4.31;69.96;100191.80;113923;1194;137907;-65
2021/11/07 04:46:36;;;;;;;24.00;14.80;;;;;;;4.30;70.17;100191.11;113683;1179;97640;-65
2021/11/07 04:49:23;;;;;;;23.30;14.50;;;;;;;4.27;70.22;100191.99;113380;1195;137867;-65
2021/11/07 04:52:10;;;;;;;25.90;16.20;;;;;;;4.22;70.08;100182.39;113483;1193;107676;-65
2021/11/07 04:54:58;;;;;;;29.20;17.50;;;;;;;4.17;70.44;100167.81;113368;1194;137943;-64
2021/11/07 04:57:45;;;;;;;26.90;16.10;;;;;;;4.12;70.54;100164.73;114751;1194;96031;-64
2021/11/07 05:00:33;;;;;;;27.30;18.30;;;;;;;4.08;70.67;100163.91;114678;1194;137549;-65
2021/11/07 05:03:20;;;;;;;22.10;15.00;;;;;;;4.02;70.66;100162.24;114702;1194;111448;-64
2021/11/07 05:06:07;;;;;;;31.00;16.70;;;;;;;3.98;70.72;100160.73;113295;1195;138758;-65
2021/11/07 05:08:55;;;;;;;26.10;16.50;;;;;;;3.95;70.91;100153.00;113984;1195;108577;-65
2021/11/07 05:11:43;;;;;;;26.00;16.60;;;;;;;3.91;71.17;100143.55;113371;1195;97521;-65
2021/11/07 05:14:30;;;;;;;27.10;16.90;;;;;;;3.88;71.11;100139.28;113502;1194;138291;-65
2021/11/07 05:17:17;;;;;;;30.30;17.50;;;;;;;3.84;71.52;100137.94;113455;1195;111148;-65
2021/11/07 05:20:05;;;;;;;28.20;17.00;;;;;;;3.78;71.49;100135.57;114572;1195;139523;-65
2021/11/07 05:22:52;;;;;;;27.50;17.80;;;;;;;3.73;71.79;100133.17;114768;1194;108244;-66
2021/11/07 05:25:39;;;;;;;27.70;17.80;;;;;;;3.68;71.77;100126.86;114549;1186;137885;-66
2021/11/07 05:28:26;;;;;;;25.20;17.00;;;;;;;3.64;72.00;100114.67;113368;1195;97508;-65
2021/11/07 05:31:13;;;;;;;;;;;;;;;3.63;72.01;100114.34;114645;1194;137586;-66
2021/11/07 05:34:00;;;;;;;27.90;17.00;;;;;;;3.59;72.23;100114.53;113665;1195;106426;-63
2021/11/07 05:36:47;;;;;;;31.30;18.50;;;;;;;3.54;72.31;100112.48;113369;1195;138038;-65
2021/11/07 05:39:34;;;;;;;29.60;18.40;;;;;;;3.48;72.63;100110.64;113464;1195;97490;-66
2021/11/07 05:42:22;;;;;;;30.10;18.40;;;;;;;3.46;72.59;100111.17;113206;1195;137879;-63
2021/11/07 05:45:09;;;;;;;29.10;18.30;;;;;;;3.44;72.84;100123.56;113474;1194;111001;-66
2021/11/07 05:47:56;;;;;;;28.10;18.40;;;;;;;3.40;72.84;100133.19;114181;1195;108534;-65
2021/11/07 05:50:44;;;;;;;28.60;18.20;;;;;;;3.35;73.22;100127.36;113388;1195;138832;-65
2021/11/07 05:53:31;;;;;;;31.40;19.20;;;;;;;3.31;73.30;100120.34;114496;1193;95757;-65
2021/11/07 05:56:18;;;;;;;;;;;;;;;3.29;73.38;100111.77;113362;1195;137567;-65
2021/11/07 05:59:06;;;;;;;33.90;19.70;;;;;;;3.25;73.41;100107.85;113491;1195;112173;-65
2021/11/07 06:01:52;;;;;;;27.30;17.30;;;;;;;3.22;73.41;100108.53;113635;1195;138332;-65
2021/11/07 06:04:39;;;;;;;29.00;18.50;;;;;;;3.22;73.69;100103.90;113282;1195;108523;-65
2021/11/07 06:07:27;;;;;;;31.40;18.80;;;;;;;3.25;73.42;100097.89;113153;1195;137720;-64
2021/11/07 06:10:14;;;;;;;;;;;;;;;3.31;73.54;100092.86;114744;1195;95969;-65
2021/11/07 06:13:01;;;;;;;31.30;18.60;;;;;;;3.42;73.65;100088.16;114404;1194;125315;-65
2021/11/07 06:15:48;;;;;;;31.20;19.30;;;;;;;3.57;73.26;100085.31;114649;1195;107799;-65
2021/11/07 06:18:35;;;;;;;;;;;;;;;3.80;73.05;100079.48;113306;1195;138080;-66
2021/11/07 06:21:24;;;;;;;30.90;19.30;;;;;;;4.06;72.66;100078.08;114108;1194;97706;-65
2021/11/07 06:24:12;;;;;;;29.40;19.30;;;;;;;4.31;72.06;100075.45;113404;1195;97562;-65
2021/11/07 06:27:01;;;;;;;30.80;18.90;;;;;;;4.57;71.59;100065.89;113204;1194;138085;-65
2021/11/07 06:29:48;;;;;;;27.30;18.80;;;;;;;4.87;71.05;100060.55;113499;1194;109362;-65
2021/11/07 06:32:37;;;;;;;27.70;18.00;;;;;;;5.17;70.14;100053.63;113211;1194;137717;-66
2021/11/07 06:35:24;;;;;;;26.70;17.40;;;;;;;5.38;69.55;100051.78;113292;1195;97492;-66
2021/11/07 06:38:12;;;;;;;27.20;18.40;;;;;;;5.65;68.65;100050.69;113316;1194;137432;-66
2021/11/07 06:40:59;;;;;;;;;;;;;;;5.94;68.19;100050.60;114328;1194;112217;-66
2021/11/07 06:43:45;;;;;;;28.30;17.50;;;;;;;6.17;67.04;100047.46;114260;1195;124283;-66
2021/11/07 06:46:35;;;;;;;25.30;16.60;;;;;;;6.38;66.74;100042.94;113078;1195;108662;-65
2021/11/07 06:49:22;;;;;;;24.30;17.40;;;;;;;6.60;65.99;100041.14;114491;1195;138746;-65
2021/11/07 06:52:09;;;;;;;25.30;18.20;;;;;;;6.85;65.51;100042.03;114688;1195;95744;-65
2021/11/07 06:54:56;;;;;;;;;;;;;;;7.04;64.72;100032.48;114692;1194;140460;-65
2021/11/07 06:57:43;;;;;;;28.40;18.00;;;;;;;7.23;64.56;100033.11;114789;1195;107573;-65
2021/11/07 07:00:30;;;;;;;26.00;16.70;;;;;;;7.46;63.73;100026.36;114720;1195;108521;-65
2021/11/07 07:03:17;;;;;;;24.70;16.90;;;;;;;7.57;63.52;100023.70;114567;1194;137599;-65
2021/11/07 07:06:04;;;;;;;25.00;15.90;;;;;;;7.58;62.52;100022.80;114723;1195;96611;-65
2021/11/07 07:08:55;;;;;;;23.60;16.10;;;;;;;7.44;62.46;100006.52;114598;1194;138113;-65
2021/11/07 07:11:51;;;;;;;23.60;16.20;;;;;;;7.28;62.63;100001.70;114843;1194;108646;-65
2021/11/07 07:14:45;;;;;;;22.10;16.20;;;;;;;7.15;62.94;100001.11;114450;1195;137999;-65
2021/11/07 07:29:37;;;;;;;20.00;14.90;;;;;;;7.19;62.61;99974.95;113406;1193;107485;-66
2021/11/07 07:32:43;;;;;;;21.40;13.80;;;;;;;7.13;62.66;99968.98;113355;1193;137475;-65
2021/11/07 07:35:30;;;;;;;19.00;13.40;;;;;;;7.05;62.51;99962.61;114880;1193;95563;-65
2021/11/07 07:38:17;;;;;;;20.40;13.60;;;;;;;6.92;62.42;99964.30;114179;1192;137403;-65
2021/11/07 07:41:04;;;;;;;18.80;13.20;;;;;;;6.84;62.63;99958.77;114806;1192;108541;-66
2021/11/07 07:43:51;;;;;;;19.80;13.30;;;;;;;6.79;62.69;99957.13;114620;1193;137904;-66
2021/11/07 07:46:42;;;;;;;20.70;13.40;;;;;;;6.74;62.75;99963.98;113908;1193;98205;-65
2021/11/07 07:49:30;;;;;;;19.00;12.70;;;;;;;6.67;62.99;99958.61;113410;1193;137908;-66
2021/11/07 07:52:23;;;;;;;20.00;13.40;;;;;;;6.66;62.97;99947.22;113834;1193;111207;-66
2021/11/07 07:55:12;;;;;;;19.40;13.60;;;;;;;6.68;62.98;99944.77;113334;1193;137612;-64
2021/11/07 07:57:59;;;;;;;19.80;12.00;;;;;;;6.73;63.14;99942.25;114778;1193;107300;-65
2021/11/07 08:00:46;;;;;;;18.50;12.50;;;;;;;6.73;62.96;99931.34;114820;1193;95968;-65
2021/11/07 08:03:34;;;;;;;19.00;12.70;;;;;;;6.75;62.90;99932.86;114155;1193;137055;-65
2021/11/07 08:06:21;;;;;;;19.20;12.60;;;;;;;6.80;62.79;99938.11;113578;1193;112186;-66
2021/11/07 08:09:08;;;;;;;18.00;12.10;;;;;;;6.89;62.74;99929.96;114657;1193;137347;-64
2021/11/07 08:11:54;;;;;;;17.80;12.40;;;;;;;6.98;62.25;99933.20;113809;1193;107200;-65
2021/11/07 08:14:42;;;;;;;18.00;12.10;;;;;;;7.09;62.55;99930.36;113432;1193;137480;-65
2021/11/07 08:17:29;;;;;;;17.40;12.90;;;;;;;7.33;61.42;99924.63;113460;1193;97486;-66
2021/11/07 08:20:18;;;;;;;;;;;;;;;7.75;61.38;99925.65;113355;1193;137300;-65
2021/11/07 08:23:05;;;;;;;17.50;11.00;;;;;;;8.31;59.29;99918.10;113261;1193;109041;-66
2021/11/07 08:25:52;;;;;;;;;;;;;;;8.32;58.12;99910.27;113393;1193;137518;-67
2021/11/07 08:28:46;;;;;;;16.30;11.10;;;;;;;8.12;58.68;99896.43;113434;1193;97627;-65
2021/11/07 08:31:35;;;;;;;15.00;11.00;;;;;;;7.96;59.07;99894.66;114219;1192;137482;-66
2021/11/07 08:34:26;;;;;;;13.90;10.10;;;;;;;7.85;59.56;99882.95;113491;1193;111852;-65
2021/11/07 08:37:15;;;;;;;17.20;10.60;;;;;;;7.76;59.64;99883.74;114657;1192;138340;-66
2021/11/07 08:40:07;;;;;;;14.50;10.40;;;;;;;7.69;60.04;99879.92;113276;1195;108522;-65
2021/11/07 08:54:18;;;;;;;16.30;9.70;;;;;;;7.64;59.90;99877.65;114780;1194;95884;-66
2021/11/07 09:02:30;;;;;;;13.30;8.80;;;;;;;7.53;59.67;99848.17;113725;1195;97426;-66
2021/11/07 09:05:25;;;;;;;13.10;9.00;;;;;;;7.51;59.63;99843.38;114759;1194;111419;-66
2021/11/07 09:08:17;;;;;;;14.10;9.10;;;;;;;7.49;59.78;99826.48;114703;1193;108516;-66
2021/11/07 09:11:05;;;;;;;13.90;9.10;;;;;;;7.49;59.74;99827.18;114639;1194;137916;-66
2021/11/07 09:13:52;;;;;;;14.70;9.30;;;;;;;7.51;59.61;99810.52;114797;1194;96806;-65
2021/11/07 09:16:39;;;;;;;12.20;8.20;;;;;;;7.53;59.56;99812.02;114695;1194;137251;-66
2021/11/07 09:19:28;;;;;;;14.00;8.90;;;;;;;7.55;59.38;99811.10;114749;1195;112349;-66
2021/11/07 09:22:39;;;;;;;11.40;8.10;;;;;;;7.56;59.69;99821.28;114611;1194;137538;-66
2021/11/07 09:25:36;;;;;;;14.00;9.10;;;;;;;7.57;59.80;99818.33;114773;1194;108860;-66
2021/11/07 09:28:45;;;;;;;13.10;8.50;;;;;;;7.61;59.90;99824.45;113392;1193;137202;-65
2021/11/07 09:31:39;;;;;;;12.60;8.50;;;;;;;7.60;59.37;99803.53;114684;1195;95556;-66
2021/11/07 09:34:39;;;;;;;12.90;8.20;;;;;;;7.62;59.77;99794.31;113572;1194;137191;-66
2021/11/07 09:37:39;;;;;;;11.60;8.20;;;;;;;7.66;59.73;99780.89;113463;1195;108509;-65
2021/11/07 09:40:28;;;;;;;12.60;7.90;;;;;;;7.76;59.71;99771.94;113192;1194;137296;-65
2021/11/07 09:46:34;;;;;;;11.40;7.90;;;;;;;8.29;58.88;99760.88;113121;1194;137194;-66
2021/11/07 09:49:31;;;;;;;12.90;8.20;;;;;;;8.47;58.77;99763.62;114030;1194;111182;-64
2021/11/07 09:52:25;;;;;;;10.90;8.20;;;;;;;8.62;58.36;99758.14;113181;1195;137564;-66
2021/11/07 09:55:13;;;;;;;11.10;7.40;;;;;;;8.68;57.92;99748.92;114754;1194;108503;-65
2021/11/07 09:58:02;;;;;;;;;;;;;;;8.71;58.03;99737.40;114621;1194;137969;-65
2021/11/07 10:00:53;;;;;;;11.30;7.50;;;;;;;8.70;57.74;99733.08;114672;1195;95782;-65
2021/11/07 10:03:43;;;;;;;10.90;6.80;;;;;;;8.74;57.31;99722.70;114552;1195;137203;-65
2021/11/07 10:06:37;;;;;;;11.30;6.90;;;;;;;8.75;57.06;99717.65;114825;1193;108248;-65
2021/11/07 10:09:37;;;;;;;11.80;6.70;;;;;;;8.74;56.61;99719.42;113168;1193;137607;-67
2021/11/07 10:12:39;;;;;;;11.10;7.30;;;;;;;8.71;55.86;99715.37;113259;1194;97524;-65
2021/11/07 10:15:54;;;;;;;11.00;7.30;;;;;;;8.69;55.76;99715.45;113243;1193;138063;-65
2021/11/07 10:18:55;;;;;;;12.60;7.10;;;;;;;8.78;55.65;99714.10;114824;1193;112145;-66
2021/11/07 10:21:49;;;;;;;9.50;6.90;;;;;;;8.93;55.00;99713.78;114704;1193;138234;-66
2021/11/07 10:24:38;;;;;;;10.50;7.00;;;;;;;9.17;55.07;99701.85;114805;1193;108658;-66
2021/11/07 10:27:26;;;;;;;9.90;7.10;;;;;;;9.52;54.92;99692.41;114677;1193;139407;-66
2021/11/07 10:30:21;;;;;;;11.00;7.00;;;;;;;9.71;54.42;99684.60;113592;1193;97487;-67
2021/11/07 10:33:26;;;;;;;11.50;7.60;;;;;;;9.76;54.22;99675.73;113633;1193;137466;-66
2021/11/07 10:45:49;;;;;;;11.40;7.70;;;;;;;9.45;53.92;99661.95;113321;1195;138705;-65
2021/11/07 10:54:48;;;;;;;10.80;7.30;;;;;;;9.21;54.57;99637.36;113392;1193;108449;-66
2021/11/07 10:57:35;;;;;;;10.50;7.20;;;;;;;9.15;54.19;99630.98;113248;1193;137690;-67
2021/11/07 11:00:37;;;;;;;9.20;6.90;;;;;;;9.05;53.80;99629.24;113231;1195;98279;-64
2021/11/07 11:03:25;;;;;;;11.00;7.20;;;;;;;8.98;54.56;99613.20;113407;1193;137242;-65
2021/11/07 11:06:13;;;;;;;10.70;7.20;;;;;;;8.93;54.29;99615.98;113374;1193;107473;-65
2021/11/07 11:09:05;;;;;;;10.70;7.00;;;;;;;8.90;54.86;99620.60;113882;1193;137800;-66
2021/11/07 11:12:15;;;;;;;10.00;6.80;;;;;;;8.92;54.88;99613.93;113307;1186;97507;-66
2021/11/07 11:15:19;;;;;;;10.30;7.10;;;;;;;8.98;55.20;99608.33;113196;1193;137460;-65
2021/11/07 11:31:18;;;;;;;11.50;6.80;;;;;;;9.30;54.12;99585.14;114795;1193;95779;-66
2021/11/07 11:34:11;;;;;;;8.40;6.80;;;;;;;9.29;54.03;99590.88;113350;1191;137451;-66
2021/11/07 11:40:07;;;;;;;8.90;7.10;;;;;;;9.25;54.36;99573.02;113940;1195;137479;-66
2021/11/07 11:43:11;;;;;;;10.40;6.80;;;;;;;9.25;54.64;99564.02;113303;1193;97612;-66
2021/11/07 11:46:08;;;;;;;9.10;6.40;;;;;;;9.24;54.46;99569.58;114635;1187;137838;-65
2021/11/07 11:50:03;;;;;;;7.60;6.10;;;;;;;9.24;54.56;99554.14;113414;1195;112148;-67
2021/11/07 11:52:48;;;;;;;9.80;6.70;;;;;;;9.25;54.08;99543.86;113092;1194;138475;-66
2021/11/07 11:56:00;;;;;;;9.50;6.40;;;;;;;9.23;54.37;99544.11;113231;1195;107500;-66
2021/11/07 11:59:06;;;;;;;7.40;6.00;;;;;;;9.18;54.22;99541.05;113235;1194;137291;-66
2021/11/07 12:02:10;;;;;;;10.70;7.10;;;;;;;9.16;54.27;99542.30;114768;1194;95771;-66
2021/11/07 12:05:35;;;;;;;8.30;6.00;;;;;;;9.17;54.88;99535.53;114621;1194;137212;-66
2021/11/07 12:14:24;;;;;;;9.70;6.60;;;;;;;9.10;54.80;99540.44;113525;1193;97486;-66
2021/11/07 12:17:12;;;;;;;8.90;6.50;;;;;;;9.03;54.99;99530.64;113047;1194;136876;-66
2021/11/07 12:20:01;;;;;;;9.00;6.80;;;;;;;8.99;55.08;99532.88;114313;1193;111272;-66
2021/11/07 12:22:50;;;;;;;9.40;6.60;;;;;;;8.97;55.40;99524.10;113761;1193;137202;-65
2021/11/07 12:25:38;;;;;;;9.80;6.70;;;;;;;8.94;55.50;99517.45;113305;1193;108494;-66
2021/11/07 12:28:46;;;;;;;9.00;6.50;;;;;;;8.89;55.59;99510.36;113280;1193;137349;-66
2021/11/07 12:31:33;;;;;;;10.40;6.50;;;;;;;8.85;55.88;99504.80;113282;1193;97515;-65
2021/11/07 12:34:21;;;;;;;9.90;6.70;;;;;;;8.84;56.23;99502.41;113374;1193;137242;-66
2021/11/07 12:40:57;;;;;;;9.30;6.80;;;;;;;8.85;56.29;99498.38;114689;1193;138017;-66
2021/11/07 12:43:49;;;;;;;10.20;7.00;;;;;;;8.84;56.47;99497.90;113351;1193;97505;-66
2021/11/07 12:46:44;;;;;;;9.30;6.70;;;;;;;8.82;56.59;99502.13;113227;1193;137008;-65
2021/11/07 12:49:31;;;;;;;8.50;6.30;;;;;;;8.83;56.74;99495.16;113323;1193;112196;-66
2021/11/07 12:52:19;;;;;;;9.70;6.70;;;;;;;8.83;56.76;99488.77;113051;1193;137428;-66
2021/11/07 12:55:26;;;;;;;10.50;6.60;;;;;;;8.83;56.88;99487.89;113278;1193;108736;-66
2021/11/07 12:58:15;;;;;;;9.20;6.70;;;;;;;8.82;56.92;99490.19;113987;1193;137252;-66
2021/11/07 13:01:02;;;;;;;11.60;7.50;;;;;;;8.80;56.97;99479.52;114845;1193;95855;-67
2021/11/07 13:03:52;;;;;;;10.10;7.20;;;;;;;8.80;56.93;99480.20;114661;1193;137103;-65
2021/11/07 13:06:39;;;;;;;9.20;6.20;;;;;;;8.81;57.12;99474.11;114802;1193;108666;-65
2021/11/07 13:09:41;;;;;;;10.80;7.70;;;;;;;8.81;56.96;99472.52;113582;1193;137264;-66
2021/11/07 13:25:46;;;;;;;9.90;6.80;;;;;;;8.76;56.66;99474.63;113562;1193;108646;-66
2021/11/07 13:28:01;;;;;;;12.30;8.30;;;;;;;8.72;56.88;99480.14;113170;1193;137231;-66
2021/11/07 13:31:39;;;;;;;10.10;7.30;;;;;;;8.70;57.00;99476.39;114096;1193;96399;-65
2021/11/07 13:34:18;;;;;;;11.80;7.80;;;;;;;8.71;57.04;99471.34;113191;1193;137035;-66
2021/11/07 13:37:07;;;;;;;9.40;7.00;;;;;;;8.71;57.07;99473.58;113314;1193;107611;-65
2021/11/07 13:40:26;;;;;;;10.40;7.40;;;;;;;8.71;56.84;99468.74;113139;1193;137029;-66
2021/11/07 13:43:20;;;;;;;9.10;7.20;;;;;;;8.70;57.08;99471.91;113351;1193;97550;-66
2021/11/07 13:46:07;;;;;;;12.60;8.00;;;;;;;8.68;57.07;99480.10;113250;1193;137063;-64
2021/11/07 13:49:03;;;;;;;10.90;7.20;;;;;;;8.66;57.13;99478.11;113338;1193;112300;-66
2021/11/07 13:52:10;;;;;;;13.70;8.30;;;;;;;8.65;57.37;99472.95;113203;1193;137250;-66
2021/11/07 13:54:57;;;;;;;10.40;7.40;;;;;;;8.64;57.39;99470.55;113328;1193;108584;-65
2021/11/07 13:57:44;;;;;;;11.80;7.90;;;;;;;8.63;57.43;99470.61;113180;1193;137446;-65
2021/11/07 14:00:31;;;;;;;11.00;7.50;;;;;;;8.62;57.50;99470.14;113526;1193;97561;-67
2021/11/07 14:03:21;;;;;;;11.40;7.70;;;;;;;8.59;57.58;99475.07;113180;1195;137431;-65
2021/11/07 14:09:03;;;;;;;9.50;6.80;;;;;;;8.56;57.76;99474.32;114668;1193;137373;-66
2021/11/07 14:11:50;;;;;;;11.20;6.90;;;;;;;8.54;57.86;99465.73;114823;1193;95867;-66
2021/11/07 14:14:37;;;;;;;11.00;7.50;;;;;;;8.52;58.00;99467.70;114771;1195;95583;-66
2021/11/07 14:17:25;;;;;;;11.40;7.30;;;;;;;8.52;58.18;99472.06;114707;1193;137011;-66
2021/11/07 14:21:12;;;;;;;10.40;7.10;;;;;;;8.50;58.32;99471.94;114797;1193;108572;-65
2021/11/07 14:27:18;;;;;;;10.80;7.50;;;;;;;8.44;59.24;99476.48;112615;1200;97521;-67
2021/11/07 14:30:10;;;;;;;10.10;7.00;;;;;;;8.40;60.06;99472.98;112472;1198;137007;-66
2021/11/07 14:33:10;;;;;;;7.30;5.60;;;;;;;8.32;60.64;99475.48;112745;1200;112314;-65
2021/11/07 14:36:12;;;;;;;8.20;6.00;;;;;;;8.27;61.47;99473.77;114121;1198;138656;-66
2021/11/07 14:39:11;;;;;;;10.40;6.90;;;;;;;8.22;61.82;99468.05;114215;1197;108595;-66
2021/11/07 14:54:36;;;;;;;12.90;7.10;;;;;;;7.91;64.15;99464.63;114019;1198;137606;-66
2021/11/07 15:00:35;;;;;;;8.80;6.10;;;;;;;7.81;64.62;99463.23;114654;1193;136964;-66
2021/11/07 15:03:27;;;;;;;9.80;6.90;;;;;;;7.76;64.97;99450.77;113499;1193;112203;-65
2021/11/07 15:09:26;;;;;;;10.00;6.70;;;;;;;7.77;65.21;99454.70;113362;1193;108510;-65